Ronse, Belgium
Current Conditions -  °F | °C
As of 2:25 AM on Sunday 26 Oct 2014 (Local Time) from EBCV Reporting Station
Broken Clouds Broken Clouds  
Wind Chill: 54°   Ceiling: 4200
Heat Index: 54°   Visibility: 6mi
Dew Point: 48°   Wind: 7mph
Humidity: 82%   Direction: 220°SW
Pressure: 30.24"   Gusts: NA
Location:  50.75°N, 3.6°E
Report Text: EBCV 260025Z AUTO 22006KT 9999 BKN042/// 12/09 Q1024 BLU
Loading
Personal Weather Stations






























Interactive Weather Map
Tropical Storm Tracking
New forecast layout! Learn more

10-Day Weather Forecast

Advertisements
Track Severe Weather on mobile